Terminal Aerodrome Forecast
Issued by NWS Shreveport, LA

Home | Current Version | Previous Version | Text Only | Print | Product List | Glossary On
Versions: 1 2 3 4 5 6 7 8 9 10 11 12 13 14
951
FTUS44 KSHV 291724
TAFELD
TAF
KELD 291724Z 2918/3018 14012G20KT P6SM SCT050 BKN250
     FM292200 17012G18KT P6SM VCTS BKN040CB BKN250
     FM300300 19010KT P6SM BKN050
     FM300600 22005KT P6SM SKC
     FM301400 24012G18KT P6SM SCT050=

USA.gov is the U.S. government's official web portal to all federal, state and local government web resources and services.